Time;durP1;ratioP1;P1;durP2;ratioP2;P2;SDS_P1;SDS_P2;PMS_P1;PMS_P2;Temp;Humidity;BMP_temperature;BMP_pressure;BME280_temperature;BME280_humidity;BME280_pressure;Samples;Min_cycle;Max_cycle;Signal;HPM_P1;HPM_P2
2022/03/12 00:01:21;;;;;;;10.52;6.20;;;6.10;49.30;;;;;;5104304;28;20078;-65
2022/03/12 00:03:47;;;;;;;11.25;5.40;;;6.10;49.60;;;;;;5104075;28;20036;-64
2022/03/12 00:06:15;;;;;;;9.57;5.70;;;6.10;49.50;;;;;;5106683;28;20077;-64
2022/03/12 00:08:43;;;;;;;10.35;6.40;;;6.10;49.50;;;;;;5108206;28;20135;-64
2022/03/12 00:11:17;;;;;;;13.48;6.70;;;6.20;49.30;;;;;;5108319;28;20051;-64
2022/03/12 00:13:43;;;;;;;8.80;5.75;;;6.20;49.10;;;;;;5108215;28;20044;-64
2022/03/12 00:16:14;;;;;;;13.07;6.40;;;6.10;49.60;;;;;;5108274;28;20087;-64
2022/03/12 00:18:42;;;;;;;10.90;5.90;;;6.20;49.40;;;;;;5108306;28;20054;-64
2022/03/12 00:21:11;;;;;;;8.50;5.53;;;6.20;49.20;;;;;;5107269;28;20052;-64
2022/03/12 00:23:37;;;;;;;12.35;6.07;;;6.20;49.40;;;;;;5106519;28;20056;-64
2022/03/12 00:26:03;;;;;;;8.43;6.40;;;6.20;49.50;;;;;;5107866;28;20039;-63
2022/03/12 00:28:29;;;;;;;15.63;6.07;;;6.20;49.20;;;;;;5108017;28;20048;-64
2022/03/12 00:30:56;;;;;;;16.65;6.60;;;6.20;49.60;;;;;;5107778;28;20032;-64
2022/03/12 00:33:24;;;;;;;9.25;5.88;;;6.10;49.40;;;;;;5107778;28;20048;-64
2022/03/12 00:35:50;;;;;;;;;;;6.10;50.00;;;;;;5107781;28;20040;-64
2022/03/12 00:38:17;;;;;;;11.43;6.47;;;6.10;49.70;;;;;;5107202;28;20043;-64
2022/03/12 00:40:43;;;;;;;13.57;8.32;;;6.00;50.10;;;;;;5107780;28;20048;-64
2022/03/12 00:43:10;;;;;;;10.90;6.60;;;6.00;49.80;;;;;;5107545;28;20078;-65
2022/03/12 00:45:37;;;;;;;12.90;7.15;;;6.00;50.20;;;;;;5107160;28;20111;-65
2022/03/12 00:48:03;;;;;;;8.45;5.80;;;6.00;49.90;;;;;;5107381;28;20070;-64
2022/03/12 00:50:29;;;;;;;12.38;6.63;;;6.00;49.80;;;;;;5087027;28;20120;-64
2022/03/12 00:52:54;;;;;;;11.85;6.60;;;6.00;49.50;;;;;;5086272;28;20052;-63
2022/03/12 00:55:20;;;;;;;11.98;6.07;;;6.10;49.80;;;;;;5087361;28;20051;-63
2022/03/12 00:57:46;;;;;;;9.40;5.93;;;6.00;49.80;;;;;;5086867;28;20059;-64
2022/03/12 01:00:16;;;;;;;10.52;6.18;;;6.00;50.60;;;;;;5087018;28;20048;-64
2022/03/12 01:02:41;;;;;;;16.50;6.55;;;6.00;49.80;;;;;;5086657;28;20048;-63
2022/03/12 01:05:08;;;;;;;11.52;5.57;;;5.90;50.10;;;;;;5086879;28;20450;-64
2022/03/12 01:07:34;;;;;;;11.93;6.30;;;6.00;49.80;;;;;;5086118;28;20060;-63
2022/03/12 01:09:59;;;;;;;13.50;6.57;;;6.00;50.00;;;;;;5086861;28;20166;-63
2022/03/12 01:12:25;;;;;;;11.90;6.20;;;6.00;50.00;;;;;;5086668;28;20072;-63
2022/03/12 01:14:51;;;;;;;11.57;6.00;;;6.00;50.00;;;;;;5086563;28;20083;-64
2022/03/12 01:17:17;;;;;;;14.60;6.30;;;6.00;49.50;;;;;;5085856;28;20105;-64
2022/03/12 01:19:43;;;;;;;9.95;5.82;;;6.00;49.90;;;;;;5086612;28;20519;-65
2022/03/12 01:22:15;;;;;;;14.63;6.30;;;5.90;49.80;;;;;;5085571;28;20049;-64
2022/03/12 01:24:40;;;;;;;13.93;6.30;;;6.00;49.60;;;;;;5086542;28;20074;-64
2022/03/12 01:27:06;;;;;;;13.82;6.43;;;6.00;49.50;;;;;;5086064;28;20045;-64
2022/03/12 01:29:32;;;;;;;15.77;7.15;;;5.90;50.40;;;;;;5086438;28;20066;-63
2022/03/12 01:31:57;;;;;;;10.82;6.40;;;5.90;49.90;;;;;;5086673;28;20048;-64
2022/03/12 01:34:23;;;;;;;11.13;6.53;;;5.90;49.90;;;;;;5086226;28;20040;-64
2022/03/12 01:36:49;;;;;;;17.33;6.15;;;5.80;50.70;;;;;;5085470;28;20537;-64
2022/03/12 01:39:15;;;;;;;11.70;6.68;;;5.90;50.50;;;;;;5095500;28;20040;-64
2022/03/12 01:41:42;;;;;;;9.25;5.72;;;5.80;50.40;;;;;;5106230;28;20059;-63
2022/03/12 01:44:08;;;;;;;13.10;6.93;;;5.90;50.40;;;;;;5106579;28;20056;-63
2022/03/12 01:46:40;;;;;;;9.07;6.05;;;5.90;49.90;;;;;;5106143;28;20146;-64
2022/03/12 01:49:10;;;;;;;10.85;6.18;;;5.90;49.70;;;;;;5106137;28;20040;-63
2022/03/12 01:51:38;;;;;;;17.23;6.22;;;5.80;50.40;;;;;;5089562;28;20052;-64
2022/03/12 01:54:04;;;;;;;9.52;6.75;;;5.80;50.40;;;;;;5085898;28;20045;-64
2022/03/12 01:56:30;;;;;;;11.57;6.20;;;5.90;50.10;;;;;;5085870;28;20052;-64
2022/03/12 01:58:58;;;;;;;13.73;6.45;;;5.90;50.20;;;;;;5086037;28;20068;-64
2022/03/12 02:01:30;;;;;;;11.73;7.15;;;5.90;50.20;;;;;;5085598;28;20044;-64
2022/03/12 02:03:59;;;;;;;9.88;6.13;;;5.90;50.20;;;;;;5085655;28;20052;-64
2022/03/12 02:06:26;;;;;;;10.38;7.07;;;5.80;50.60;;;;;;5083743;28;20051;-64
2022/03/12 02:08:55;;;;;;;10.13;6.43;;;5.80;51.10;;;;;;5085739;28;20044;-64
2022/03/12 02:11:27;;;;;;;9.95;6.47;;;5.80;50.80;;;;;;5085643;28;20080;-63
2022/03/12 02:14:13;;;;;;;14.77;6.95;;;5.80;50.90;;;;;;5085634;28;20048;-63
2022/03/12 02:16:51;;;;;;;10.38;6.93;;;5.70;51.00;;;;;;5085320;28;20078;-64
2022/03/12 02:19:18;;;;;;;11.48;6.50;;;5.70;51.20;;;;;;5085246;28;20119;-63
2022/03/12 02:21:59;;;;;;;13.38;6.18;;;5.70;51.10;;;;;;5084411;28;20040;-63
2022/03/12 02:24:27;;;;;;;11.70;6.32;;;5.70;51.10;;;;;;5085231;28;20531;-63
2022/03/12 02:26:55;;;;;;;12.27;5.97;;;5.70;51.80;;;;;;5085171;28;20052;-63
2022/03/12 02:29:22;;;;;;;;;;;5.70;51.60;;;;;;5098026;28;20040;-63
2022/03/12 02:31:56;;;;;;;11.65;6.90;;;5.70;51.40;;;;;;5105225;28;19973;-63
2022/03/12 02:34:36;;;;;;;9.95;6.32;;;5.60;52.00;;;;;;5105404;28;20044;-64
2022/03/12 02:37:02;;;;;;;10.20;6.47;;;5.60;51.60;;;;;;5104505;28;20104;-64
2022/03/12 02:39:27;;;;;;;23.80;8.25;;;5.60;51.90;;;;;;5105276;28;20115;-63
2022/03/12 02:42:00;;;;;;;14.38;6.82;;;5.60;51.90;;;;;;5105132;28;20117;-64
2022/03/12 02:44:27;;;;;;;12.40;6.97;;;5.60;52.10;;;;;;5105250;28;20063;-64
2022/03/12 02:47:11;;;;;;;11.02;7.28;;;5.60;52.20;;;;;;5103870;28;20487;-64
2022/03/12 02:49:40;;;;;;;12.93;6.82;;;5.60;52.20;;;;;;5105224;28;20047;-64
2022/03/12 02:52:06;;;;;;;10.10;6.00;;;5.60;51.90;;;;;;5104166;28;20044;-64
2022/03/12 02:54:32;;;;;;;15.40;6.32;;;5.60;52.20;;;;;;5105235;28;20036;-64
2022/03/12 02:57:01;;;;;;;11.02;6.03;;;5.50;52.50;;;;;;5104915;28;20240;-64
2022/03/12 02:59:27;;;;;;;13.20;5.32;;;5.50;52.20;;;;;;5105275;28;20517;-64
2022/03/12 03:01:56;;;;;;;9.50;6.55;;;5.60;52.20;;;;;;5104780;28;20040;-64
2022/03/12 03:04:22;;;;;;;16.40;6.47;;;5.50;52.60;;;;;;5104856;28;20523;-64
2022/03/12 03:06:47;;;;;;;11.07;6.75;;;5.50;52.90;;;;;;5104138;28;20048;-64
2022/03/12 03:09:14;;;;;;;9.23;6.15;;;5.50;52.50;;;;;;5104917;28;20093;-64
2022/03/12 03:11:40;;;;;;;9.68;6.63;;;5.40;53.00;;;;;;5104713;28;20348;-63
2022/03/12 03:14:12;;;;;;;13.57;7.05;;;5.50;52.80;;;;;;5103898;28;20309;-64
2022/03/12 03:16:39;;;;;;;10.85;6.60;;;5.40;53.70;;;;;;5104752;28;20056;-64
2022/03/12 03:19:05;;;;;;;12.13;7.22;;;5.40;53.50;;;;;;5104486;28;20439;-64
2022/03/12 03:21:30;;;;;;;10.13;7.32;;;5.40;53.40;;;;;;5103763;28;20112;-65
2022/03/12 03:23:56;;;;;;;9.63;6.82;;;5.40;54.00;;;;;;5104341;28;20047;-64
2022/03/12 03:26:34;;;;;;;10.65;6.85;;;5.40;53.70;;;;;;5104674;28;20032;-64
2022/03/12 03:29:00;;;;;;;12.43;6.07;;;5.40;54.40;;;;;;5104488;28;20098;-64
2022/03/12 03:31:26;;;;;;;10.18;6.45;;;5.30;53.90;;;;;;5104406;28;20044;-63
2022/03/12 03:33:52;;;;;;;10.65;6.97;;;5.30;54.30;;;;;;5104450;28;20039;-64
2022/03/12 03:36:19;;;;;;;10.32;6.05;;;5.30;54.70;;;;;;5103924;28;20058;-64
2022/03/12 03:38:45;;;;;;;9.48;6.07;;;5.30;54.50;;;;;;5104286;28;20083;-64
2022/03/12 03:41:11;;;;;;;13.88;5.97;;;5.30;54.50;;;;;;5104116;28;20028;-64
2022/03/12 03:43:37;;;;;;;9.82;6.68;;;5.20;54.80;;;;;;5104228;28;20118;-64
2022/03/12 03:46:02;;;;;;;11.77;6.80;;;5.20;54.90;;;;;;5104150;28;20052;-64
2022/03/12 03:48:30;;;;;;;13.70;7.07;;;5.20;56.00;;;;;;5104253;28;20064;-65
2022/03/12 03:50:55;;;;;;;15.02;7.60;;;5.20;55.90;;;;;;5103656;28;20067;-64
2022/03/12 03:53:24;;;;;;;12.05;7.43;;;5.10;55.60;;;;;;5104345;28;20055;-63
2022/03/12 03:55:56;;;;;;;12.35;7.32;;;5.10;55.60;;;;;;5102770;28;20056;-64
2022/03/12 03:58:22;;;;;;;13.55;7.07;;;5.10;55.60;;;;;;5104244;28;20051;-63
2022/03/12 04:00:59;;;;;;;13.05;6.10;;;5.10;55.70;;;;;;5103960;28;20040;-64
2022/03/12 04:03:32;;;;;;;11.80;6.93;;;5.10;55.40;;;;;;5104272;28;20040;-64
2022/03/12 04:06:00;;;;;;;10.40;6.80;;;5.10;55.50;;;;;;5103542;28;20040;-63
2022/03/12 04:08:25;;;;;;;8.77;6.45;;;5.10;55.60;;;;;;5103852;28;20066;-63
2022/03/12 04:10:51;;;;;;;9.30;6.45;;;5.10;56.40;;;;;;5104007;28;20051;-63
2022/03/12 04:13:19;;;;;;;10.38;6.95;;;5.00;55.80;;;;;;5102581;28;20071;-64
2022/03/12 04:15:46;;;;;;;9.13;6.38;;;5.00;56.50;;;;;;5104017;28;20055;-64
2022/03/12 04:18:15;;;;;;;11.70;7.13;;;5.00;56.00;;;;;;5104035;28;20040;-63
2022/03/12 04:20:47;;;;;;;13.23;7.53;;;4.90;56.90;;;;;;5104137;28;20072;-63
2022/03/12 04:23:19;;;;;;;9.50;6.07;;;4.90;56.30;;;;;;5103115;28;20404;-64
2022/03/12 04:25:55;;;;;;;21.40;6.50;;;4.90;56.20;;;;;;5104078;28;20036;-63
2022/03/12 04:28:22;;;;;;;9.77;6.40;;;4.90;55.90;;;;;;5102681;28;20052;-63
2022/03/12 04:30:49;;;;;;;12.60;6.47;;;4.90;56.70;;;;;;5103707;28;20036;-63
2022/03/12 04:33:16;;;;;;;9.82;6.32;;;4.90;56.00;;;;;;5103979;28;20071;-64
2022/03/12 04:35:43;;;;;;;12.02;7.03;;;4.80;56.30;;;;;;5103941;28;20068;-63
2022/03/12 04:38:09;;;;;;;17.13;7.63;;;4.80;56.40;;;;;;5103147;28;20075;-63
2022/03/12 04:40:39;;;;;;;13.18;6.70;;;4.90;59.90;;;;;;5103760;28;20055;-63
2022/03/12 04:43:06;;;;;;;12.60;6.40;;;4.60;55.30;;;;;;5103833;28;20056;-63
2022/03/12 04:45:32;;;;;;;11.10;6.57;;;4.80;56.40;;;;;;5103780;28;20052;-63
2022/03/12 04:47:59;;;;;;;18.53;7.67;;;4.80;56.40;;;;;;5103955;28;20056;-63
2022/03/12 04:50:24;;;;;;;16.13;6.35;;;4.80;56.60;;;;;;5103670;28;20051;-63
2022/03/12 04:52:52;;;;;;;11.25;6.50;;;4.80;56.60;;;;;;5105022;28;20044;-63
2022/03/12 04:55:22;;;;;;;;;;;4.80;56.50;;;;;;5107678;28;20032;-63
2022/03/12 04:57:48;;;;;;;10.20;6.35;;;4.80;56.70;;;;;;5107215;28;19949;-63
2022/03/12 05:00:26;;;;;;;11.60;7.38;;;4.80;57.00;;;;;;5107166;28;20047;-63
2022/03/12 05:03:18;;;;;;;11.55;6.32;;;4.70;57.60;;;;;;5107225;28;20044;-63
2022/03/12 05:05:46;;;;;;;10.05;6.90;;;4.70;57.60;;;;;;5105834;28;20112;-63
2022/03/12 05:08:37;;;;;;;11.65;7.47;;;4.70;57.20;;;;;;5105217;28;20100;-63
2022/03/12 05:11:04;;;;;;;9.13;6.22;;;4.70;57.40;;;;;;5107192;28;20040;-64
2022/03/12 05:13:30;;;;;;;11.90;6.78;;;4.70;58.00;;;;;;5107104;28;20051;-64
2022/03/12 05:15:58;;;;;;;12.75;6.97;;;4.60;57.60;;;;;;5106779;28;20028;-64
2022/03/12 05:18:25;;;;;;;;;;;4.60;58.10;;;;;;5107400;28;20052;-64
2022/03/12 05:20:51;;;;;;;13.27;6.43;;;4.60;58.80;;;;;;5106788;28;20431;-64
2022/03/12 05:23:18;;;;;;;10.55;5.55;;;4.70;57.20;;;;;;5106327;28;20495;-64
2022/03/12 05:25:47;;;;;;;9.50;6.50;;;4.70;57.20;;;;;;5106653;28;20215;-63
2022/03/12 05:28:16;;;;;;;10.70;6.40;;;4.80;57.40;;;;;;5106551;28;20415;-63
2022/03/12 05:30:46;;;;;;;9.95;6.63;;;4.80;57.50;;;;;;5106488;28;20051;-64
2022/03/12 05:33:17;;;;;;;13.85;7.00;;;4.80;57.70;;;;;;5106754;28;20048;-63
2022/03/12 05:35:45;;;;;;;12.98;6.90;;;4.70;57.30;;;;;;5106123;28;20047;-63
2022/03/12 05:38:12;;;;;;;10.68;6.57;;;4.70;57.70;;;;;;5105379;28;20036;-64
2022/03/12 05:40:39;;;;;;;11.88;6.60;;;4.60;57.80;;;;;;5106124;28;20067;-64
2022/03/12 05:43:10;;;;;;;15.55;6.78;;;4.60;57.90;;;;;;5106356;28;20063;-64
2022/03/12 05:45:37;;;;;;;13.25;6.82;;;4.60;57.90;;;;;;5105987;28;20172;-64
2022/03/12 05:48:04;;;;;;;12.25;6.63;;;4.60;58.00;;;;;;5106461;28;20048;-63
2022/03/12 05:50:30;;;;;;;11.13;6.43;;;4.60;58.10;;;;;;5106265;28;20036;-64
2022/03/12 05:52:55;;;;;;;14.05;6.70;;;4.60;58.40;;;;;;5103788;28;20078;-64
2022/03/12 05:55:23;;;;;;;11.07;5.97;;;4.60;58.80;;;;;;5105881;28;20052;-64
2022/03/12 05:57:50;;;;;;;11.88;6.43;;;4.60;58.40;;;;;;5105888;28;20050;-64
2022/03/12 06:00:17;;;;;;;9.75;6.72;;;4.60;59.00;;;;;;5106186;28;20089;-64
2022/03/12 06:02:51;;;;;;;10.75;6.22;;;4.50;58.90;;;;;;5105380;28;20097;-64
2022/03/12 06:05:24;;;;;;;10.13;6.35;;;4.50;58.90;;;;;;5105819;28;20044;-64
2022/03/12 06:07:50;;;;;;;12.27;6.15;;;4.50;59.10;;;;;;5104857;28;20048;-63
2022/03/12 06:10:23;;;;;;;8.40;5.97;;;4.50;59.50;;;;;;5105633;28;20051;-64
2022/03/12 06:12:51;;;;;;;10.15;6.35;;;4.50;59.80;;;;;;5105296;28;20044;-63
2022/03/12 06:15:18;;;;;;;10.20;5.70;;;4.50;59.90;;;;;;5105962;28;20100;-64
2022/03/12 06:17:49;;;;;;;11.05;6.88;;;4.50;59.60;;;;;;5105571;28;20056;-64
2022/03/12 06:20:17;;;;;;;9.20;5.90;;;4.50;60.00;;;;;;5105825;28;20047;-64
2022/03/12 06:22:44;;;;;;;10.02;6.05;;;4.60;59.90;;;;;;5137472;27;20522;-64
2022/03/12 06:25:12;;;;;;;10.40;6.80;;;4.50;59.90;;;;;;5105582;28;20055;-64
2022/03/12 06:27:42;;;;;;;10.98;6.10;;;4.50;59.90;;;;;;5105582;28;20289;-64
2022/03/12 06:30:10;;;;;;;9.65;6.03;;;4.50;59.00;;;;;;5105416;28;20040;-64
2022/03/12 06:32:42;;;;;;;16.05;6.85;;;4.50;59.30;;;;;;5105157;28;20499;-64
2022/03/12 06:35:15;;;;;;;14.10;6.75;;;4.50;59.20;;;;;;5105176;28;20044;-64
2022/03/12 06:37:41;;;;;;;10.60;6.40;;;4.50;59.70;;;;;;5104424;28;20036;-64
2022/03/12 06:40:08;;;;;;;15.07;6.55;;;4.50;59.20;;;;;;5105232;28;20048;-64
2022/03/12 06:42:36;;;;;;;10.45;6.90;;;4.50;59.60;;;;;;5105340;28;20043;-65
2022/03/12 06:45:02;;;;;;;12.35;6.57;;;4.50;60.00;;;;;;5104881;28;20066;-64
2022/03/12 06:47:32;;;;;;;10.40;6.07;;;4.50;60.00;;;;;;5105036;28;20046;-64
2022/03/12 06:49:59;;;;;;;10.52;6.72;;;4.50;59.80;;;;;;5105014;28;20044;-64
2022/03/12 06:52:27;;;;;;;13.75;6.82;;;4.50;59.40;;;;;;5104000;28;20099;-64
2022/03/12 06:54:53;;;;;;;9.27;6.22;;;4.50;58.20;;;;;;5105233;28;20036;-63
2022/03/12 06:57:20;;;;;;;10.05;6.18;;;4.60;58.50;;;;;;5104920;28;20518;-64
2022/03/12 06:59:46;;;;;;;9.63;6.07;;;4.60;58.70;;;;;;5104877;28;20092;-64
2022/03/12 07:02:12;;;;;;;14.52;7.10;;;4.60;59.00;;;;;;5104642;28;20074;-64
2022/03/12 07:04:38;;;;;;;10.65;5.90;;;4.70;59.50;;;;;;5104748;28;20044;-64
2022/03/12 07:07:04;;;;;;;10.85;5.90;;;4.70;58.20;;;;;;5103880;28;20051;-64
2022/03/12 07:09:30;;;;;;;9.45;5.75;;;4.70;58.10;;;;;;5105021;28;20048;-64
2022/03/12 07:11:59;;;;;;;10.55;6.28;;;4.80;58.40;;;;;;5104391;28;20048;-64
2022/03/12 07:14:25;;;;;;;15.15;6.32;;;4.80;57.90;;;;;;5104115;28;20062;-64
2022/03/12 07:16:52;;;;;;;10.65;6.93;;;4.90;58.10;;;;;;5104448;28;20044;-64
2022/03/12 07:19:18;;;;;;;9.13;6.35;;;4.90;58.00;;;;;;5104571;28;20085;-64
2022/03/12 07:21:43;;;;;;;9.15;6.18;;;4.90;58.30;;;;;;5103476;28;20080;-64
2022/03/12 07:24:09;;;;;;;9.45;5.88;;;4.90;57.50;;;;;;5104133;28;20380;-64
2022/03/12 07:26:35;;;;;;;12.43;6.30;;;5.00;57.50;;;;;;5104162;28;20044;-64
2022/03/12 07:29:01;;;;;;;12.13;7.70;;;5.00;57.70;;;;;;5104387;28;20040;-63
2022/03/12 07:31:27;;;;;;;9.75;6.35;;;5.00;58.00;;;;;;5104133;28;20135;-63
2022/03/12 07:33:52;;;;;;;13.73;6.13;;;4.90;58.70;;;;;;5104626;28;20063;-63
2022/03/12 07:36:18;;;;;;;12.98;6.75;;;4.90;59.10;;;;;;5103753;28;20464;-64
2022/03/12 07:38:44;;;;;;;10.18;6.57;;;4.80;59.20;;;;;;5104036;28;20044;-64
2022/03/12 07:41:10;;;;;;;12.98;6.45;;;4.80;59.90;;;;;;5104069;28;20105;-64
2022/03/12 07:43:36;;;;;;;11.30;6.40;;;4.90;60.50;;;;;;5104173;28;20527;-64
2022/03/12 07:46:03;;;;;;;11.30;6.32;;;4.90;61.10;;;;;;5103803;28;20056;-64
2022/03/12 07:48:29;;;;;;;9.98;6.63;;;5.00;61.30;;;;;;5104437;28;20052;-64
2022/03/12 07:50:55;;;;;;;9.85;6.68;;;5.10;61.10;;;;;;5103410;28;20575;-63
2022/03/12 07:53:21;;;;;;;10.10;6.53;;;5.20;61.00;;;;;;5104055;28;20055;-63
2022/03/12 07:55:47;;;;;;;10.27;6.50;;;5.30;60.60;;;;;;5104048;28;20072;-63
2022/03/12 07:58:15;;;;;;;10.60;6.40;;;5.40;60.20;;;;;;5104341;28;20131;-63
2022/03/12 08:00:40;;;;;;;10.23;6.70;;;5.50;59.70;;;;;;5104383;28;20040;-63
2022/03/12 08:03:06;;;;;;;11.10;6.53;;;5.70;58.90;;;;;;5103923;28;20055;-64
2022/03/12 08:05:32;;;;;;;13.80;5.80;;;5.80;58.60;;;;;;5103968;28;20044;-63
2022/03/12 08:07:58;;;;;;;11.10;6.55;;;5.90;58.90;;;;;;5103142;28;20074;-64
2022/03/12 08:10:24;;;;;;;9.60;6.13;;;6.00;58.10;;;;;;5104010;28;20036;-64
2022/03/12 08:12:50;;;;;;;8.95;6.38;;;6.20;56.80;;;;;;5104136;28;20317;-64
2022/03/12 08:15:17;;;;;;;9.77;5.95;;;6.30;56.80;;;;;;5104051;28;20411;-63
2022/03/12 08:17:44;;;;;;;11.60;6.20;;;6.50;56.20;;;;;;5103690;28;20048;-63
2022/03/12 08:20:10;;;;;;;10.63;5.72;;;6.50;56.00;;;;;;5104002;28;20036;-64
2022/03/12 08:22:41;;;;;;;12.68;6.40;;;6.60;56.20;;;;;;5103213;28;20044;-64
2022/03/12 08:25:09;;;;;;;12.25;6.25;;;6.80;56.30;;;;;;5104245;28;20383;-64
2022/03/12 08:27:36;;;;;;;10.27;6.28;;;6.90;55.80;;;;;;5104708;28;20047;-64
2022/03/12 08:30:03;;;;;;;10.33;6.73;;;7.10;55.50;;;;;;5108000;28;20131;-64
2022/03/12 08:32:29;;;;;;;14.80;6.70;;;7.20;56.40;;;;;;5107712;28;20458;-63
2022/03/12 08:34:58;;;;;;;9.70;6.47;;;7.20;55.30;;;;;;5107921;28;20036;-64
2022/03/12 08:37:24;;;;;;;10.57;6.55;;;7.30;54.70;;;;;;5107058;28;20055;-64
2022/03/12 08:39:50;;;;;;;12.65;6.70;;;7.40;55.40;;;;;;5107851;28;20040;-64
2022/03/12 08:42:16;;;;;;;15.40;6.25;;;7.60;55.20;;;;;;5107467;28;20076;-64
2022/03/12 08:44:41;;;;;;;12.60;6.97;;;7.60;54.70;;;;;;5107555;28;20555;-64
2022/03/12 08:47:07;;;;;;;8.93;6.10;;;7.70;55.00;;;;;;5107444;28;20052;-65
2022/03/12 08:49:34;;;;;;;12.77;6.68;;;7.90;54.60;;;;;;5107551;28;20051;-64
2022/03/12 08:52:00;;;;;;;12.52;6.50;;;8.10;54.80;;;;;;5106804;28;20040;-64
2022/03/12 08:54:26;;;;;;;12.10;6.63;;;8.30;54.60;;;;;;5107326;28;20109;-64
2022/03/12 08:56:51;;;;;;;13.32;7.30;;;8.40;53.60;;;;;;5107002;28;20052;-64
2022/03/12 08:59:17;;;;;;;9.82;6.57;;;8.40;53.10;;;;;;5107118;28;20044;-64
2022/03/12 09:01:45;;;;;;;11.13;6.90;;;8.50;53.90;;;;;;5106727;28;20051;-65
2022/03/12 09:04:12;;;;;;;18.10;7.63;;;8.50;54.20;;;;;;5107467;28;20228;-64
2022/03/12 09:06:38;;;;;;;14.10;6.47;;;8.50;53.80;;;;;;5106461;28;20036;-65
2022/03/12 09:09:04;;;;;;;16.17;6.97;;;8.60;53.80;;;;;;5106461;28;20098;-64
2022/03/12 09:11:30;;;;;;;9.70;6.45;;;8.70;53.80;;;;;;5107090;28;20119;-64
2022/03/12 09:13:56;;;;;;;10.77;6.55;;;8.80;54.10;;;;;;5105655;28;20088;-64
2022/03/12 09:16:22;;;;;;;9.35;6.38;;;8.90;54.30;;;;;;5106844;28;20070;-64
2022/03/12 09:18:48;;;;;;;13.13;6.53;;;9.10;53.70;;;;;;5106489;28;20059;-64
2022/03/12 09:21:15;;;;;;;11.43;6.95;;;9.20;54.30;;;;;;5105890;28;20028;-65
2022/03/12 09:23:40;;;;;;;9.60;6.60;;;9.30;53.70;;;;;;5106306;28;20048;-64
2022/03/12 09:26:06;;;;;;;15.00;7.25;;;9.40;53.70;;;;;;5106378;28;20050;-64
2022/03/12 09:28:32;;;;;;;10.43;6.88;;;9.60;53.60;;;;;;5106717;28;20169;-64
2022/03/12 09:30:58;;;;;;;11.02;6.75;;;9.80;53.50;;;;;;5106566;28;20082;-64
2022/03/12 09:33:24;;;;;;;10.50;7.03;;;9.90;53.10;;;;;;5106633;28;20047;-64
2022/03/12 09:35:51;;;;;;;8.32;6.10;;;10.10;53.50;;;;;;5106220;28;20051;-64
2022/03/12 09:38:17;;;;;;;10.55;6.90;;;10.20;53.20;;;;;;5105811;28;20074;-64
2022/03/12 09:40:44;;;;;;;8.07;6.75;;;10.30;53.00;;;;;;5106625;28;20047;-64
2022/03/12 09:43:11;;;;;;;11.60;6.20;;;10.50;53.60;;;;;;5106083;28;20040;-65
2022/03/12 09:45:37;;;;;;;10.45;6.47;;;10.70;53.20;;;;;;5106161;28;20048;-64
2022/03/12 09:48:03;;;;;;;11.27;7.35;;;10.70;52.70;;;;;;5105899;28;20051;-64
2022/03/12 09:50:29;;;;;;;10.73;7.15;;;10.80;52.20;;;;;;5106400;28;20044;-64
2022/03/12 09:52:55;;;;;;;12.10;7.18;;;10.80;52.70;;;;;;5105215;28;20074;-64
2022/03/12 09:55:21;;;;;;;11.32;7.30;;;11.00;53.00;;;;;;5106434;28;20052;-64
2022/03/12 09:57:48;;;;;;;15.98;6.55;;;11.10;52.70;;;;;;5106046;28;20048;-64
2022/03/12 10:00:15;;;;;;;11.23;6.63;;;11.30;53.10;;;;;;5106132;28;20052;-64
2022/03/12 10:02:41;;;;;;;15.77;7.40;;;11.50;53.10;;;;;;5105820;28;20048;-64
2022/03/12 10:05:11;;;;;;;9.93;7.18;;;11.70;54.00;;;;;;5106164;28;20058;-64
2022/03/12 10:07:37;;;;;;;11.55;8.15;;;11.80;54.30;;;;;;5104123;28;20076;-64
2022/03/12 10:10:03;;;;;;;11.50;7.03;;;11.80;54.70;;;;;;5105900;28;20036;-64
2022/03/12 10:12:29;;;;;;;9.85;7.50;;;11.80;55.20;;;;;;5105804;28;20036;-63
2022/03/12 10:14:55;;;;;;;12.27;7.95;;;11.70;55.70;;;;;;5105817;28;20105;-64
2022/03/12 10:17:21;;;;;;;12.10;7.80;;;11.80;55.90;;;;;;5105724;28;20048;-64
2022/03/12 10:19:47;;;;;;;9.85;6.90;;;11.90;56.30;;;;;;5105909;28;20040;-64
2022/03/12 10:22:14;;;;;;;12.50;8.02;;;12.00;56.20;;;;;;5104467;28;20105;-64
2022/03/12 10:24:41;;;;;;;10.23;7.57;;;12.10;56.70;;;;;;5105733;28;20044;-64
2022/03/12 10:27:07;;;;;;;10.95;7.88;;;12.30;56.90;;;;;;5105561;28;20051;-64
2022/03/12 10:29:34;;;;;;;9.30;6.90;;;12.30;57.20;;;;;;5105628;28;20036;-64
2022/03/12 10:32:23;;;;;;;15.73;8.15;;;12.30;57.50;;;;;;5105489;28;20044;-64
2022/03/12 10:34:52;;;;;;;12.35;8.10;;;12.40;58.10;;;;;;5105584;28;20499;-65
2022/03/12 10:37:23;;;;;;;10.50;7.80;;;12.40;58.60;;;;;;5104484;28;20531;-64
2022/03/12 10:40:06;;;;;;;15.00;7.25;;;12.50;58.70;;;;;;5105197;28;20047;-64
2022/03/12 10:42:32;;;;;;;10.93;7.25;;;12.50;58.60;;;;;;5104970;28;20040;-64
2022/03/12 10:45:11;;;;;;;11.20;8.20;;;12.50;59.00;;;;;;5105074;28;20048;-64
2022/03/12 10:47:46;;;;;;;11.80;7.75;;;12.50;59.00;;;;;;5104918;28;20074;-63
2022/03/12 10:50:18;;;;;;;14.43;7.75;;;12.60;59.30;;;;;;5104310;28;20040;-63
2022/03/12 10:52:49;;;;;;;12.23;8.05;;;12.70;59.20;;;;;;5104007;28;20064;-64
2022/03/12 10:55:38;;;;;;;11.02;7.57;;;12.90;59.70;;;;;;5104828;28;20040;-64
2022/03/12 10:58:25;;;;;;;10.00;7.93;;;12.80;59.30;;;;;;5104722;28;20044;-63
2022/03/12 11:00:53;;;;;;;9.80;7.82;;;12.80;60.10;;;;;;5104600;28;20070;-63
2022/03/12 11:03:24;;;;;;;10.85;7.68;;;12.70;61.00;;;;;;5104791;28;20059;-64
2022/03/12 11:05:51;;;;;;;11.90;8.43;;;12.80;61.60;;;;;;5104458;28;20040;-64
2022/03/12 11:08:26;;;;;;;13.18;7.60;;;13.00;62.30;;;;;;5104603;28;20036;-64
2022/03/12 11:11:11;;;;;;;21.13;9.10;;;13.10;62.50;;;;;;5104845;28;20059;-64
2022/03/12 11:13:41;;;;;;;12.43;7.43;;;13.50;65.70;;;;;;5104726;28;20051;-64
2022/03/12 11:16:09;;;;;;;11.75;7.60;;;13.20;61.80;;;;;;5104253;28;20047;-64
2022/03/12 11:18:35;;;;;;;8.45;6.78;;;13.30;63.10;;;;;;5104324;28;20040;-65
2022/03/12 11:21:01;;;;;;;11.95;8.13;;;13.30;62.70;;;;;;5103767;28;20556;-64
2022/03/12 11:23:30;;;;;;;12.15;7.70;;;13.30;62.50;;;;;;5104055;28;20044;-64
2022/03/12 11:26:00;;;;;;;15.00;8.25;;;13.40;63.00;;;;;;5104334;28;20052;-63
2022/03/12 11:28:29;;;;;;;11.35;7.93;;;13.50;62.80;;;;;;5104339;28;20036;-63
2022/03/12 11:30:56;;;;;;;13.85;8.98;;;13.50;62.40;;;;;;5104092;28;20046;-63
2022/03/12 11:33:24;;;;;;;12.52;8.15;;;13.70;62.70;;;;;;5104335;28;20127;-64
2022/03/12 11:36:00;;;;;;;11.32;8.23;;;13.80;62.30;;;;;;5103921;28;20040;-64
2022/03/12 11:38:27;;;;;;;10.57;7.53;;;14.00;62.20;;;;;;5104028;28;20040;-65
2022/03/12 11:41:23;;;;;;;12.38;7.80;;;14.00;61.80;;;;;;5104166;28;20067;-65
2022/03/12 11:43:49;;;;;;;12.43;8.10;;;14.20;61.80;;;;;;5104600;28;20065;-65
2022/03/12 11:46:15;;;;;;;11.02;8.30;;;14.30;62.20;;;;;;5103973;28;20135;-65
2022/03/12 11:48:41;;;;;;;10.13;7.32;;;14.30;62.00;;;;;;5104332;28;20073;-65
2022/03/12 11:51:21;;;;;;;15.63;7.55;;;14.40;62.50;;;;;;5103674;28;20044;-65
2022/03/12 11:53:47;;;;;;;9.13;7.25;;;14.70;62.50;;;;;;5104059;28;20054;-65
2022/03/12 11:56:17;;;;;;;11.18;7.05;;;15.10;62.40;;;;;;5104300;28;20044;-64
2022/03/12 11:58:44;;;;;;;9.93;6.40;;;15.40;61.90;;;;;;5136730;28;20059;-63
2022/03/12 12:01:11;;;;;;;11.15;5.90;;;15.40;63.60;;;;;;5105225;28;20040;-63
2022/03/12 12:03:37;;;;;;;7.53;5.63;;;15.30;68.30;;;;;;5108341;28;20101;-64
2022/03/12 12:06:02;;;;;;;9.68;5.68;;;15.20;67.20;;;;;;5107538;28;20048;-63
2022/03/12 12:08:28;;;;;;;8.93;5.45;;;15.30;66.80;;;;;;5108259;28;20044;-64
2022/03/12 12:10:54;;;;;;;8.02;5.75;;;15.10;62.60;;;;;;5108029;28;20097;-65
2022/03/12 12:13:21;;;;;;;9.80;5.10;;;15.30;62.50;;;;;;5108393;28;20048;-65
2022/03/12 12:15:48;;;;;;;11.50;5.75;;;15.60;62.30;;;;;;5108208;28;20054;-65
2022/03/12 12:18:14;;;;;;;7.15;5.50;;;15.80;61.40;;;;;;5107950;28;20043;-65
2022/03/12 12:20:41;;;;;;;12.45;5.32;;;16.20;60.70;;;;;;5107926;28;20044;-65
2022/03/12 12:23:12;;;;;;;11.10;5.10;;;16.50;59.90;;;;;;5107253;28;20044;-65
2022/03/12 12:25:39;;;;;;;5.95;4.93;;;16.60;59.30;;;;;;5107809;28;20058;-66
2022/03/12 12:28:15;;;;;;;9.82;4.93;;;16.70;57.90;;;;;;5107775;28;20044;-65
2022/03/12 12:30:46;;;;;;;8.32;4.85;;;16.60;57.20;;;;;;5107668;28;20069;-66
2022/03/12 12:33:23;;;;;;;9.13;4.65;;;16.60;57.30;;;;;;5107598;28;20101;-66
2022/03/12 12:36:08;;;;;;;7.68;4.90;;;16.70;57.60;;;;;;5107414;28;20397;-65
2022/03/12 12:38:34;;;;;;;9.45;4.78;;;16.40;56.80;;;;;;5107509;28;20056;-65
2022/03/12 12:41:03;;;;;;;7.97;4.90;;;16.30;57.30;;;;;;5107329;28;20047;-66
2022/03/12 12:43:37;;;;;;;10.23;5.25;;;16.40;57.70;;;;;;5107362;28;20052;-66
2022/03/12 12:46:12;;;;;;;13.20;5.25;;;16.20;57.50;;;;;;5107081;28;20064;-66
2022/03/12 12:48:43;;;;;;;7.45;4.47;;;16.50;57.40;;;;;;5107457;28;20120;-66
2022/03/12 12:51:22;;;;;;;9.95;5.22;;;16.70;56.60;;;;;;5106747;28;20048;-65
2022/03/12 12:53:50;;;;;;;7.22;4.32;;;16.70;55.40;;;;;;5106884;28;20387;-66